Time;durP1;ratioP1;P1;durP2;ratioP2;P2;SDS_P1;SDS_P2;PMS_P1;PMS_P2;Temp;Humidity;BMP_temperature;BMP_pressure;BME280_temperature;BME280_humidity;BME280_pressure;Samples;Min_cycle;Max_cycle;Signal;HPM_P1;HPM_P2
2021/06/04 00:00:25;;;;;;;7.05;6.45;;;10.20;99.90;;;;;;5018230;28;20057;-65
2021/06/04 00:02:54;;;;;;;11.13;8.18;;;10.20;99.90;;;;;;5018477;28;20045;-65
2021/06/04 00:05:27;;;;;;;7.70;7.00;;;10.20;99.90;;;;;;5019967;28;20053;-65
2021/06/04 00:07:54;;;;;;;8.80;7.95;;;10.20;99.90;;;;;;5015035;28;20076;-65
2021/06/04 00:10:27;;;;;;;16.52;7.97;;;10.10;99.90;;;;;;5014199;28;20245;-65
2021/06/04 00:13:09;;;;;;;8.93;8.05;;;10.10;99.90;;;;;;5016791;28;20096;-65
2021/06/04 00:15:36;;;;;;;9.43;8.48;;;10.10;99.90;;;;;;5017307;28;21497;-65
2021/06/04 00:18:04;;;;;;;11.45;9.00;;;10.00;99.90;;;;;;5018503;28;20491;-65
2021/06/04 00:20:30;;;;;;;9.88;8.88;;;10.00;99.90;;;;;;5017866;28;20045;-65
2021/06/04 00:22:57;;;;;;;9.93;8.25;;;10.00;99.90;;;;;;5017791;28;20864;-65
2021/06/04 00:25:25;;;;;;;10.50;9.50;;;10.00;99.90;;;;;;5016174;28;20132;-66
2021/06/04 00:27:52;;;;;;;11.38;10.27;;;9.90;99.90;;;;;;5017924;28;20081;-65
2021/06/04 00:30:20;;;;;;;10.55;9.45;;;9.90;99.90;;;;;;5017784;28;20473;-65
2021/06/04 00:32:47;;;;;;;10.43;9.27;;;9.80;99.90;;;;;;5016486;28;21442;-65
2021/06/04 00:35:14;;;;;;;10.77;9.05;;;9.80;99.90;;;;;;5017645;28;20061;-65
2021/06/04 00:37:40;;;;;;;10.98;8.13;;;9.80;99.90;;;;;;5015981;28;20082;-65
2021/06/04 00:40:12;;;;;;;12.18;10.05;;;9.80;99.90;;;;;;5017466;28;20125;-65
2021/06/04 00:42:39;;;;;;;11.05;9.88;;;9.80;99.90;;;;;;5013156;28;20033;-65
2021/06/04 00:45:10;;;;;;;9.88;8.88;;;9.80;99.90;;;;;;5017814;28;20062;-66
2021/06/04 00:47:38;;;;;;;12.55;9.45;;;9.70;99.90;;;;;;5012857;28;20056;-65
2021/06/04 00:50:12;;;;;;;9.55;8.50;;;9.70;99.90;;;;;;5012054;28;20125;-65
2021/06/04 00:52:39;;;;;;;9.98;8.95;;;9.70;99.90;;;;;;5014216;28;20069;-65
2021/06/04 00:55:11;;;;;;;8.75;7.95;;;9.70;99.90;;;;;;5016733;28;20726;-65
2021/06/04 00:57:38;;;;;;;10.60;9.57;;;9.70;99.90;;;;;;5012250;28;20052;-65
2021/06/04 01:00:22;;;;;;;12.98;8.82;;;9.60;99.90;;;;;;5047379;28;20059;-65
2021/06/04 01:02:51;;;;;;;10.75;9.50;;;9.60;99.90;;;;;;5014289;28;20041;-65
2021/06/04 01:05:21;;;;;;;11.13;10.00;;;9.50;99.90;;;;;;5014727;28;20053;-65
2021/06/04 01:08:30;;;;;;;9.80;8.80;;;9.50;99.90;;;;;;5017044;28;20138;-65
2021/06/04 01:11:27;;;;;;;9.20;7.85;;;9.50;99.90;;;;;;5036159;28;20144;-65
2021/06/04 01:14:15;;;;;;;10.48;8.57;;;9.50;99.90;;;;;;5011072;28;20045;-65
2021/06/04 01:17:01;;;;;;;10.18;9.20;;;9.40;99.90;;;;;;5031169;28;20041;-65
2021/06/04 01:19:51;;;;;;;10.48;9.20;;;9.30;99.90;;;;;;5014971;28;20041;-65
2021/06/04 01:22:46;;;;;;;9.70;8.85;;;9.30;99.90;;;;;;5017696;28;20073;-65
2021/06/04 01:25:28;;;;;;;10.77;9.77;;;9.30;99.90;;;;;;5013107;28;20438;-65
2021/06/04 01:27:59;;;;;;;10.07;9.05;;;9.20;99.90;;;;;;5045550;28;20052;-65
2021/06/04 01:30:52;;;;;;;10.57;9.55;;;9.20;99.90;;;;;;5017234;28;20053;-65
2021/06/04 01:33:28;;;;;;;9.63;8.77;;;9.20;99.90;;;;;;5022524;28;20069;-65
2021/06/04 01:35:59;;;;;;;13.10;9.07;;;9.20;99.90;;;;;;5013235;28;20470;-65
2021/06/04 01:38:33;;;;;;;12.25;9.65;;;9.10;99.90;;;;;;5029199;28;20048;-65
2021/06/04 01:41:07;;;;;;;11.45;9.98;;;9.10;99.90;;;;;;5016955;28;20053;-65
2021/06/04 01:43:48;;;;;;;10.18;9.02;;;9.00;99.90;;;;;;5046393;28;20706;-65
2021/06/04 01:46:26;;;;;;;11.45;9.75;;;9.10;99.90;;;;;;5033222;28;20130;-65
2021/06/04 01:48:56;;;;;;;10.60;9.50;;;9.20;99.90;;;;;;5017793;28;20115;-65
2021/06/04 01:51:26;;;;;;;;;;;9.20;99.90;;;;;;5034471;28;20053;-65
2021/06/04 01:54:25;;;;;;;10.63;9.13;;;9.20;99.90;;;;;;5014753;28;19925;-65
2021/06/04 01:57:01;;;;;;;9.30;8.50;;;9.20;99.90;;;;;;5019015;28;20048;-65
2021/06/04 01:59:36;;;;;;;9.52;7.82;;;9.20;99.90;;;;;;5011124;28;20045;-65
2021/06/04 02:02:22;;;;;;;9.20;8.32;;;9.20;99.90;;;;;;5022223;28;20068;-65
2021/06/04 02:04:53;;;;;;;9.65;8.75;;;9.20;99.90;;;;;;5017347;28;20112;-65
2021/06/04 02:07:26;;;;;;;8.65;7.85;;;9.20;99.90;;;;;;5017739;28;21556;-65
2021/06/04 02:09:56;;;;;;;9.32;8.25;;;9.20;99.90;;;;;;5011550;28;20045;-65
2021/06/04 02:12:29;;;;;;;8.55;7.72;;;9.20;99.90;;;;;;5021964;28;20048;-65
2021/06/04 02:15:16;;;;;;;8.73;7.82;;;9.20;99.90;;;;;;5017635;28;20589;-65
2021/06/04 02:18:08;;;;;;;8.52;7.72;;;9.20;99.90;;;;;;5014072;28;22568;-65
2021/06/04 02:21:02;;;;;;;9.63;7.93;;;9.10;99.90;;;;;;5018764;28;20185;-65
2021/06/04 02:23:45;;;;;;;10.18;9.10;;;9.10;99.90;;;;;;5047646;28;20073;-65
2021/06/04 02:26:45;;;;;;;9.35;7.80;;;9.10;99.90;;;;;;5018350;28;20871;-65
2021/06/04 02:29:22;;;;;;;8.68;7.55;;;9.10;99.90;;;;;;5046975;28;20487;-65
2021/06/04 02:32:12;;;;;;;10.13;9.10;;;9.10;99.90;;;;;;5031409;28;20045;-65
2021/06/04 02:34:59;;;;;;;10.75;8.50;;;9.10;99.90;;;;;;5049871;28;20052;-65
2021/06/04 02:37:58;;;;;;;11.18;8.07;;;9.10;99.90;;;;;;5018482;28;20056;-65
2021/06/04 02:40:37;;;;;;;9.10;8.20;;;9.10;99.90;;;;;;5051485;28;20676;-65
2021/06/04 02:43:10;;;;;;;8.98;7.22;;;9.10;99.90;;;;;;5034967;28;20157;-65
2021/06/04 02:45:56;;;;;;;8.02;7.25;;;9.10;99.90;;;;;;5035740;28;20156;-65
2021/06/04 02:48:25;;;;;;;13.52;10.35;;;9.10;99.90;;;;;;5020899;28;20122;-65
2021/06/04 02:51:09;;;;;;;11.00;9.63;;;9.10;99.90;;;;;;5019764;28;21509;-65
2021/06/04 02:53:48;;;;;;;9.25;8.35;;;9.10;99.90;;;;;;5019739;28;20041;-65
2021/06/04 02:56:27;;;;;;;10.00;9.10;;;9.10;99.90;;;;;;5020228;28;20088;-65
2021/06/04 02:59:08;;;;;;;10.15;9.25;;;9.10;99.90;;;;;;5037546;28;20050;-65
2021/06/04 03:01:43;;;;;;;9.40;8.25;;;9.20;99.90;;;;;;5033899;28;20617;-65
2021/06/04 03:04:15;;;;;;;11.30;10.32;;;9.20;99.90;;;;;;5037492;28;20198;-65
2021/06/04 03:06:59;;;;;;;10.88;9.82;;;9.20;99.90;;;;;;5014329;28;20054;-65
2021/06/04 03:09:36;;;;;;;9.30;8.15;;;9.30;99.90;;;;;;5017403;28;20045;-65
2021/06/04 03:12:15;;;;;;;9.55;8.63;;;9.30;99.90;;;;;;5052947;28;20050;-65
2021/06/04 03:14:44;;;;;;;10.02;7.30;;;9.40;99.90;;;;;;5020859;28;20056;-65
2021/06/04 03:17:11;;;;;;;8.77;7.95;;;9.40;99.90;;;;;;5014579;28;20048;-65
2021/06/04 03:19:42;;;;;;;8.75;7.95;;;9.50;99.90;;;;;;5019658;28;20052;-65
2021/06/04 03:22:10;;;;;;;9.60;8.57;;;9.60;99.90;;;;;;5035438;28;20121;-65
2021/06/04 03:24:43;;;;;;;8.25;7.45;;;9.60;99.90;;;;;;5019902;28;20050;-65
2021/06/04 03:27:15;;;;;;;8.63;7.68;;;9.70;99.90;;;;;;5035527;28;20157;-65
2021/06/04 03:29:47;;;;;;;7.85;7.05;;;9.70;99.90;;;;;;5033368;28;20136;-64
2021/06/04 03:32:15;;;;;;;7.75;6.80;;;9.80;99.90;;;;;;5052202;28;20632;-64
2021/06/04 03:34:46;;;;;;;7.70;6.90;;;9.80;99.90;;;;;;5066346;28;20053;-65
2021/06/04 03:37:15;;;;;;;9.30;7.38;;;9.90;99.90;;;;;;5019981;28;20492;-65
2021/06/04 03:39:45;;;;;;;6.93;6.22;;;10.00;99.90;;;;;;5018080;28;20099;-65
2021/06/04 03:42:29;;;;;;;7.32;6.55;;;10.00;99.90;;;;;;5019550;28;20123;-65
2021/06/04 03:44:57;;;;;;;6.70;6.10;;;10.10;99.90;;;;;;5018581;28;20517;-65
2021/06/04 03:47:25;;;;;;;6.43;5.57;;;10.10;99.90;;;;;;5018854;28;20073;-65
2021/06/04 03:49:53;;;;;;;5.38;4.75;;;10.20;99.90;;;;;;5016644;28;20137;-65
2021/06/04 03:52:23;;;;;;;5.32;4.82;;;10.30;99.90;;;;;;5017903;28;20160;-65
2021/06/04 03:54:51;;;;;;;;;;;10.40;99.90;;;;;;5019426;28;20178;-65
2021/06/04 03:57:23;;;;;;;6.72;5.18;;;10.50;99.90;;;;;;5018129;28;19955;-65
2021/06/04 03:59:50;;;;;;;5.72;5.10;;;10.60;99.90;;;;;;5016957;28;20049;-65
2021/06/04 04:02:21;;;;;;;6.72;5.68;;;10.60;99.90;;;;;;5018135;28;20041;-65
2021/06/04 04:04:50;;;;;;;5.70;4.70;;;10.70;99.90;;;;;;5018793;28;20548;-65
2021/06/04 04:07:17;;;;;;;6.78;5.00;;;10.80;99.90;;;;;;5017239;28;20081;-65
2021/06/04 04:09:44;;;;;;;5.47;4.97;;;10.90;99.90;;;;;;5048616;28;20802;-65
2021/06/04 04:12:11;;;;;;;7.32;5.22;;;11.00;99.90;;;;;;5018588;28;20057;-65
2021/06/04 04:14:40;;;;;;;5.35;4.80;;;11.10;99.90;;;;;;5029665;28;20053;-65
2021/06/04 04:17:07;;;;;;;6.18;4.65;;;11.20;99.90;;;;;;5013736;28;20068;-65
2021/06/04 04:19:34;;;;;;;6.07;5.47;;;11.30;99.90;;;;;;5016149;28;20145;-65
2021/06/04 04:22:01;;;;;;;5.13;4.32;;;11.40;99.90;;;;;;5017803;28;20037;-65
2021/06/04 04:24:35;;;;;;;5.53;4.68;;;11.50;99.90;;;;;;5017894;28;20046;-65
2021/06/04 04:27:04;;;;;;;8.60;4.95;;;11.60;99.90;;;;;;5017460;28;20812;-65
2021/06/04 04:29:31;;;;;;;4.95;4.07;;;11.70;99.90;;;;;;5014526;28;20415;-65
2021/06/04 04:32:00;;;;;;;5.68;4.15;;;11.80;99.90;;;;;;5018448;28;20049;-65
2021/06/04 04:34:29;;;;;;;7.22;4.70;;;11.90;99.90;;;;;;5020172;28;20042;-65
2021/06/04 04:37:00;;;;;;;4.35;3.55;;;12.00;99.90;;;;;;5016821;28;20575;-65
2021/06/04 04:39:35;;;;;;;8.82;4.03;;;12.10;99.90;;;;;;5018900;28;20134;-65
2021/06/04 04:42:05;;;;;;;4.75;3.67;;;12.30;99.90;;;;;;5018266;28;20118;-65
2021/06/04 04:44:34;;;;;;;3.47;3.17;;;12.40;99.90;;;;;;5019632;28;20075;-65
2021/06/04 04:47:04;;;;;;;5.47;3.85;;;12.50;99.90;;;;;;5016157;28;20103;-65
2021/06/04 04:49:31;;;;;;;4.63;3.13;;;12.60;99.90;;;;;;5016872;28;20050;-65
2021/06/04 04:51:58;;;;;;;6.40;3.35;;;12.60;99.90;;;;;;5016743;28;20132;-65
2021/06/04 04:54:25;;;;;;;6.70;3.38;;;12.80;99.90;;;;;;5047810;28;20053;-65
2021/06/04 04:56:53;;;;;;;8.18;4.57;;;12.90;99.90;;;;;;5014285;28;20122;-65
2021/06/04 04:59:20;;;;;;;3.80;3.05;;;13.00;99.90;;;;;;5017203;28;20077;-65
2021/06/04 05:01:47;;;;;;;11.05;3.70;;;13.10;99.90;;;;;;5012675;28;20103;-65
2021/06/04 05:04:14;;;;;;;7.97;6.28;;;13.20;99.90;;;;;;5015229;28;20049;-65
2021/06/04 05:06:41;;;;;;;11.45;6.70;;;13.40;99.90;;;;;;5015889;28;20464;-65
2021/06/04 05:09:08;;;;;;;11.35;6.97;;;13.60;99.90;;;;;;5015113;28;20076;-65
2021/06/04 05:11:35;;;;;;;8.32;5.60;;;13.70;99.90;;;;;;5015374;28;20045;-65
2021/06/04 05:14:03;;;;;;;10.90;6.13;;;13.60;99.90;;;;;;5015422;28;20052;-65
2021/06/04 05:16:30;;;;;;;9.40;5.95;;;13.70;99.90;;;;;;5016583;28;20042;-65
2021/06/04 05:18:57;;;;;;;7.28;5.30;;;13.80;99.90;;;;;;5015259;28;20387;-65
2021/06/04 05:21:26;;;;;;;9.80;5.60;;;13.90;99.90;;;;;;5017859;28;20461;-65
2021/06/04 05:23:54;;;;;;;10.63;5.85;;;14.00;99.90;;;;;;5013386;28;20056;-65
2021/06/04 05:26:21;;;;;;;14.63;7.60;;;14.00;99.90;;;;;;5017499;28;20148;-65
2021/06/04 05:28:48;;;;;;;7.93;5.80;;;14.10;99.90;;;;;;5014705;28;20053;-65
2021/06/04 05:31:16;;;;;;;10.10;6.63;;;14.20;99.90;;;;;;5016989;28;20057;-65
2021/06/04 05:33:45;;;;;;;14.25;7.35;;;14.30;99.90;;;;;;5014538;28;20154;-65
2021/06/04 05:36:16;;;;;;;10.88;6.22;;;14.40;99.90;;;;;;5017607;28;20054;-65
2021/06/04 05:38:45;;;;;;;9.77;6.28;;;14.50;99.90;;;;;;5014746;28;20133;-65
2021/06/04 05:41:13;;;;;;;10.85;7.68;;;14.40;99.90;;;;;;5013300;28;20107;-65
2021/06/04 05:43:42;;;;;;;8.35;6.43;;;14.50;99.90;;;;;;5014684;28;20119;-65
2021/06/04 05:46:11;;;;;;;9.20;6.47;;;14.40;99.90;;;;;;5017174;28;20777;-65
2021/06/04 05:48:38;;;;;;;8.20;6.40;;;14.40;99.90;;;;;;5012513;28;20057;-65
2021/06/04 05:51:09;;;;;;;10.52;6.60;;;14.50;99.90;;;;;;5013477;28;20065;-65
2021/06/04 05:53:38;;;;;;;7.13;6.43;;;14.50;99.90;;;;;;5013305;28;20057;-65
2021/06/04 05:56:09;;;;;;;6.85;6.15;;;14.50;99.90;;;;;;5016361;28;20136;-65
2021/06/04 05:58:37;;;;;;;11.45;5.97;;;14.50;99.90;;;;;;5013527;28;20053;-65
2021/06/04 06:01:09;;;;;;;7.47;6.07;;;14.50;99.90;;;;;;5014349;28;20081;-65
2021/06/04 06:03:37;;;;;;;13.70;6.72;;;14.60;99.90;;;;;;5013899;28;20152;-65
2021/06/04 06:06:05;;;;;;;7.95;5.75;;;14.70;99.90;;;;;;5013865;28;20052;-65
2021/06/04 06:08:33;;;;;;;13.35;5.60;;;14.70;99.90;;;;;;1308782;28;10023521;-65
2021/06/04 06:11:00;;;;;;;14.02;7.28;;;14.80;99.90;;;;;;5020502;28;20865;-65
2021/06/04 06:13:28;;;;;;;7.38;6.07;;;14.90;99.90;;;;;;5019009;28;20068;-65
2021/06/04 06:15:56;;;;;;;7.13;6.10;;;15.00;99.90;;;;;;5018936;28;20513;-65
2021/06/04 06:18:24;;;;;;;9.93;7.35;;;15.10;99.90;;;;;;5020790;28;20164;-64
2021/06/04 06:20:52;;;;;;;7.00;6.30;;;15.10;99.90;;;;;;5017345;28;20587;-65
2021/06/04 06:23:26;;;;;;;12.07;7.72;;;15.10;99.90;;;;;;5021724;28;20053;-65
2021/06/04 06:26:10;;;;;;;6.88;4.90;;;15.00;99.90;;;;;;5016529;28;21903;-65
2021/06/04 06:28:39;;;;;;;9.77;5.65;;;14.90;99.90;;;;;;5020951;28;20475;-65
2021/06/04 06:31:13;;;;;;;5.55;5.15;;;15.00;99.90;;;;;;5017716;28;20069;-64
2021/06/04 06:33:40;;;;;;;5.70;5.20;;;14.90;99.90;;;;;;5020087;28;20041;-65
2021/06/04 06:36:12;;;;;;;9.43;4.55;;;14.90;99.90;;;;;;5019861;28;20049;-65
2021/06/04 06:38:40;;;;;;;6.82;5.03;;;14.90;99.90;;;;;;5022050;28;20569;-65
2021/06/04 06:41:10;;;;;;;7.40;6.30;;;14.80;99.90;;;;;;5018536;28;20127;-65
2021/06/04 06:43:39;;;;;;;5.85;5.25;;;14.60;99.90;;;;;;5018901;28;20171;-65
2021/06/04 06:46:08;;;;;;;9.23;6.50;;;14.30;99.90;;;;;;5019871;28;20055;-65
2021/06/04 06:48:36;;;;;;;5.55;4.93;;;14.30;99.90;;;;;;5021622;28;20140;-65
2021/06/04 06:51:05;;;;;;;8.50;5.45;;;14.30;99.90;;;;;;5019436;28;20045;-65
2021/06/04 06:53:32;;;;;;;6.43;5.75;;;14.40;99.90;;;;;;5020267;28;20153;-64
2021/06/04 06:55:58;;;;;;;8.90;6.05;;;14.40;99.90;;;;;;5016827;28;20095;-65
2021/06/04 06:58:27;;;;;;;5.82;5.30;;;14.50;99.90;;;;;;5015000;28;20046;-65
2021/06/04 07:00:55;;;;;;;7.47;5.70;;;14.50;99.90;;;;;;5017590;28;20049;-65
2021/06/04 07:03:27;;;;;;;6.53;5.57;;;14.60;99.90;;;;;;5018303;28;20234;-65
2021/06/04 07:05:57;;;;;;;8.93;5.35;;;14.70;99.90;;;;;;5014926;28;20220;-65
2021/06/04 07:08:24;;;;;;;6.15;4.47;;;14.80;99.90;;;;;;5017079;28;20416;-65
2021/06/04 07:10:51;;;;;;;4.88;4.38;;;14.90;99.90;;;;;;5017294;28;20418;-65
2021/06/04 07:13:26;;;;;;;5.13;4.63;;;15.00;99.90;;;;;;5019862;28;20049;-65
2021/06/04 07:16:04;;;;;;;4.93;4.45;;;15.10;99.90;;;;;;5016951;28;20077;-65
2021/06/04 07:18:31;;;;;;;7.70;6.38;;;15.20;99.90;;;;;;5019392;28;20057;-65
2021/06/04 07:20:58;;;;;;;5.18;4.72;;;15.30;99.90;;;;;;5017679;28;20427;-65
2021/06/04 07:23:28;;;;;;;4.95;4.43;;;15.40;99.90;;;;;;5016785;28;20716;-65
2021/06/04 07:25:56;;;;;;;5.93;4.32;;;15.40;99.90;;;;;;5018397;28;20069;-65
2021/06/04 07:28:28;;;;;;;4.05;3.67;;;15.50;99.90;;;;;;5018460;28;20147;-65
2021/06/04 07:30:56;;;;;;;4.55;4.15;;;15.60;99.90;;;;;;5019255;28;20226;-65
2021/06/04 07:33:31;;;;;;;7.97;4.30;;;15.60;99.90;;;;;;5018557;28;20056;-65
2021/06/04 07:36:00;;;;;;;5.47;3.78;;;15.60;99.90;;;;;;5017228;28;20119;-65
2021/06/04 07:38:27;;;;;;;6.57;3.80;;;15.70;99.90;;;;;;5018418;28;20103;-65
2021/06/04 07:40:55;;;;;;;4.00;3.70;;;15.70;99.90;;;;;;5019461;28;20671;-65
2021/06/04 07:43:27;;;;;;;5.32;3.63;;;15.70;99.90;;;;;;5018362;28;20139;-65
2021/06/04 07:45:55;;;;;;;3.47;3.17;;;15.80;99.90;;;;;;5017181;28;20049;-65
2021/06/04 07:48:23;;;;;;;4.22;3.00;;;15.80;99.90;;;;;;5020036;28;20152;-64
2021/06/04 07:50:53;;;;;;;2.47;2.28;;;15.80;99.90;;;;;;5018805;28;20052;-65
2021/06/04 07:53:24;;;;;;;4.25;2.55;;;15.90;99.90;;;;;;5020049;28;20076;-65
2021/06/04 07:55:52;;;;;;;3.47;3.08;;;16.00;99.90;;;;;;5016760;28;20073;-65
2021/06/04 07:58:19;;;;;;;4.75;2.35;;;16.00;99.90;;;;;;5019186;28;20065;-65
2021/06/04 08:00:47;;;;;;;3.83;2.45;;;16.10;99.90;;;;;;5017879;28;20530;-65
2021/06/04 08:03:19;;;;;;;4.95;3.72;;;16.20;99.90;;;;;;5019060;28;20073;-65
2021/06/04 08:05:46;;;;;;;2.97;2.67;;;16.10;99.90;;;;;;5013159;28;20080;-65
2021/06/04 08:08:14;;;;;;;4.78;2.83;;;16.00;99.90;;;;;;5017808;28;20045;-65
2021/06/04 08:10:41;;;;;;;3.22;2.53;;;16.10;99.90;;;;;;5017002;28;20120;-65
2021/06/04 08:13:15;;;;;;;4.78;2.55;;;16.30;99.90;;;;;;5018142;28;20705;-63
2021/06/04 08:15:50;;;;;;;3.53;2.35;;;16.30;99.90;;;;;;5015885;28;20060;-63
2021/06/04 08:18:20;;;;;;;4.20;2.20;;;16.40;99.90;;;;;;5020253;28;20053;-63
2021/06/04 08:20:47;;;;;;;;;;;16.30;99.90;;;;;;5016573;28;20616;-63
2021/06/04 08:23:20;;;;;;;3.35;2.30;;;16.40;99.90;;;;;;5011302;28;19974;-63
2021/06/04 08:25:50;;;;;;;5.40;2.95;;;16.30;99.90;;;;;;5015049;28;20072;-63
2021/06/04 08:28:19;;;;;;;5.10;3.33;;;16.40;99.90;;;;;;5017658;28;20855;-63
2021/06/04 08:30:48;;;;;;;4.90;2.63;;;16.30;99.90;;;;;;5016812;28;20058;-63
2021/06/04 08:33:28;;;;;;;3.58;2.67;;;16.30;99.90;;;;;;5017600;28;20053;-63
2021/06/04 08:35:59;;;;;;;5.10;3.15;;;16.30;99.90;;;;;;5013972;28;20122;-63
2021/06/04 08:38:30;;;;;;;2.75;2.28;;;16.30;99.90;;;;;;5016920;28;20081;-65
2021/06/04 08:41:25;;;;;;;5.25;3.30;;;16.30;99.90;;;;;;5017684;28;20739;-64
2021/06/04 08:43:55;;;;;;;3.95;2.65;;;16.20;99.90;;;;;;5016824;28;20151;-64
2021/06/04 08:46:32;;;;;;;2.90;2.60;;;16.20;99.90;;;;;;5016804;28;20126;-65
2021/06/04 08:49:13;;;;;;;5.07;3.05;;;16.20;99.90;;;;;;5015547;28;21432;-65
2021/06/04 08:51:47;;;;;;;;;;;16.30;99.90;;;;;;5013121;28;20545;-65
2021/06/04 08:54:42;;;;;;;4.82;2.53;;;16.30;99.90;;;;;;5016951;28;19937;-63
2021/06/04 08:57:15;;;;;;;3.72;2.40;;;16.30;99.90;;;;;;5012978;28;20077;-64
2021/06/04 08:59:44;;;;;;;3.20;2.70;;;16.40;99.90;;;;;;4998419;28;20049;-65
2021/06/04 09:02:19;;;;;;;5.65;2.65;;;16.50;99.90;;;;;;5013052;28;20049;-64
2021/06/04 09:05:03;;;;;;;3.38;2.60;;;16.50;99.90;;;;;;5016789;28;20057;-65
2021/06/04 09:07:36;;;;;;;3.03;2.45;;;16.60;99.90;;;;;;5015793;28;20133;-65
2021/06/04 09:10:42;;;;;;;4.55;2.35;;;16.60;99.90;;;;;;5014590;28;20121;-65
2021/06/04 09:13:15;;;;;;;4.55;2.80;;;16.70;99.90;;;;;;5018180;28;20664;-65
2021/06/04 09:15:44;;;;;;;3.92;2.45;;;16.90;99.90;;;;;;5010073;28;20041;-65
2021/06/04 09:18:16;;;;;;;3.45;2.30;;;16.90;99.90;;;;;;5017516;28;20487;-65
2021/06/04 09:20:53;;;;;;;2.95;2.75;;;16.80;99.90;;;;;;5016481;28;20057;-65
2021/06/04 09:23:26;;;;;;;5.00;2.40;;;16.90;99.90;;;;;;5015278;28;20508;-65
2021/06/04 09:25:53;;;;;;;4.68;2.72;;;16.90;99.90;;;;;;5015022;28;20069;-65
2021/06/04 09:28:29;;;;;;;3.28;2.97;;;16.80;99.90;;;;;;5006739;28;20049;-65
2021/06/04 09:31:00;;;;;;;3.33;2.55;;;16.80;99.90;;;;;;5010615;28;20049;-65
2021/06/04 09:33:31;;;;;;;2.67;1.80;;;16.80;99.90;;;;;;5011740;28;20428;-65
2021/06/04 09:36:01;;;;;;;2.13;2.03;;;16.80;99.90;;;;;;5015345;28;20107;-64
2021/06/04 09:38:40;;;;;;;4.57;2.38;;;16.90;99.90;;;;;;5013144;28;20103;-65
2021/06/04 09:41:25;;;;;;;2.20;1.80;;;17.00;99.90;;;;;;5016060;28;20060;-65
2021/06/04 09:44:14;;;;;;;5.50;2.47;;;16.90;99.90;;;;;;5012429;28;20061;-65
2021/06/04 09:46:51;;;;;;;3.17;1.50;;;17.10;99.90;;;;;;5018428;28;20227;-65
2021/06/04 09:49:36;;;;;;;3.53;2.53;;;17.20;99.90;;;;;;5014974;28;20045;-65
2021/06/04 09:52:22;;;;;;;3.65;1.98;;;17.30;99.90;;;;;;5014970;28;20053;-65
2021/06/04 09:55:22;;;;;;;4.53;2.15;;;17.40;99.70;;;;;;5013637;28;20115;-64
2021/06/04 09:58:04;;;;;;;3.45;1.65;;;17.60;98.60;;;;;;5010368;28;20719;-65
2021/06/04 10:00:51;;;;;;;9.27;2.08;;;17.70;97.80;;;;;;5009211;28;20041;-65
2021/06/04 10:03:41;;;;;;;1.73;1.60;;;17.90;97.60;;;;;;5015731;28;20153;-64
2021/06/04 10:06:31;;;;;;;2.60;1.58;;;18.00;95.90;;;;;;5013033;28;24897;-64
2021/06/04 10:09:10;;;;;;;4.95;1.92;;;18.10;94.50;;;;;;5015083;28;20175;-65
2021/06/04 10:11:39;;;;;;;1.45;1.35;;;18.20;94.90;;;;;;5012152;28;20126;-64
2021/06/04 10:14:26;;;;;;;2.60;1.00;;;18.20;93.30;;;;;;5014692;28;20162;-64
2021/06/04 10:17:02;;;;;;;4.10;1.30;;;18.30;92.60;;;;;;5013711;28;20045;-64
2021/06/04 10:19:37;;;;;;;1.25;1.15;;;18.50;92.20;;;;;;5014653;28;20041;-63
2021/06/04 10:22:31;;;;;;;3.05;1.73;;;18.60;92.00;;;;;;5015080;28;20053;-63
2021/06/04 10:25:21;;;;;;;2.42;1.17;;;18.70;91.20;;;;;;5015846;28;20138;-63
2021/06/04 10:27:56;;;;;;;2.05;1.52;;;18.70;89.10;;;;;;5015604;28;20045;-63
2021/06/04 10:30:40;;;;;;;5.00;1.35;;;18.90;90.40;;;;;;5018576;28;20049;-63
2021/06/04 10:33:32;;;;;;;1.58;1.48;;;18.90;89.70;;;;;;5015571;28;20053;-63
2021/06/04 10:36:00;;;;;;;2.25;0.98;;;19.00;89.10;;;;;;5011654;28;20178;-63
2021/06/04 10:38:41;;;;;;;3.17;1.60;;;19.10;87.70;;;;;;5014686;28;20144;-63
2021/06/04 10:41:15;;;;;;;1.17;1.10;;;19.30;85.80;;;;;;5014998;28;20058;-63
2021/06/04 10:43:50;;;;;;;2.03;1.17;;;19.40;85.40;;;;;;5012983;28;20831;-63
2021/06/04 10:46:30;;;;;;;1.83;1.30;;;19.50;86.40;;;;;;5013170;28;20675;-63
2021/06/04 10:49:15;;;;;;;1.48;1.13;;;19.70;85.40;;;;;;5015563;28;20114;-63
2021/06/04 10:52:06;;;;;;;1.63;1.20;;;19.70;83.80;;;;;;5011674;28;20045;-63
2021/06/04 10:54:35;;;;;;;2.72;1.73;;;19.40;82.80;;;;;;5018514;28;20041;-63
2021/06/04 10:57:09;;;;;;;1.93;1.63;;;19.20;81.50;;;;;;5018074;28;20053;-63
2021/06/04 10:59:57;;;;;;;3.80;1.70;;;19.10;82.50;;;;;;5021195;28;20291;-63
2021/06/04 11:03:00;;;;;;;1.25;1.15;;;19.10;81.70;;;;;;5020783;28;20455;-63
2021/06/04 11:05:45;;;;;;;2.38;1.38;;;19.20;83.30;;;;;;5020429;28;20111;-64
2021/06/04 11:08:50;;;;;;;2.03;1.20;;;19.40;81.90;;;;;;5019498;28;20222;-63
2021/06/04 11:11:38;;;;;;;2.03;1.30;;;19.40;81.30;;;;;;5021570;28;20053;-63
2021/06/04 11:14:22;;;;;;;1.88;0.82;;;19.30;80.00;;;;;;5020795;28;20056;-63
2021/06/04 11:17:00;;;;;;;4.13;2.17;;;19.10;79.20;;;;;;5020311;28;20533;-63
2021/06/04 11:19:37;;;;;;;1.92;0.90;;;19.10;80.60;;;;;;5020538;28;20073;-63
2021/06/04 11:22:12;;;;;;;3.13;1.10;;;19.10;80.60;;;;;;5020449;28;20542;-64
2021/06/04 11:24:49;;;;;;;2.15;1.02;;;19.10;80.10;;;;;;5022611;28;20149;-63
2021/06/04 11:27:25;;;;;;;2.35;0.77;;;19.20;80.90;;;;;;5020305;28;20076;-63
2021/06/04 11:29:53;;;;;;;3.15;1.25;;;19.20;79.90;;;;;;5020752;28;20099;-63
2021/06/04 11:32:32;;;;;;;1.30;1.20;;;19.20;80.40;;;;;;5021264;28;20100;-63
2021/06/04 11:35:09;;;;;;;0.93;0.93;;;19.20;80.70;;;;;;5021629;28;20123;-63
2021/06/04 11:37:46;;;;;;;1.38;1.17;;;19.10;79.60;;;;;;5018983;28;20119;-63
2021/06/04 11:40:33;;;;;;;1.58;1.48;;;19.00;78.00;;;;;;5021940;28;20231;-63
2021/06/04 11:43:06;;;;;;;1.73;0.85;;;19.00;80.40;;;;;;5020681;28;20138;-63
2021/06/04 11:45:35;;;;;;;1.40;0.85;;;19.00;80.90;;;;;;5021840;28;20107;-63
2021/06/04 11:48:26;;;;;;;2.15;1.50;;;19.00;79.50;;;;;;5020253;28;20539;-63
2021/06/04 11:51:18;;;;;;;1.58;1.00;;;19.00;79.30;;;;;;5022771;28;21001;-63
2021/06/04 11:53:47;;;;;;;2.35;1.13;;;19.10;79.50;;;;;;5016999;28;20177;-63
2021/06/04 11:56:39;;;;;;;2.13;1.20;;;19.30;79.10;;;;;;5020961;28;20154;-63
2021/06/04 11:59:09;;;;;;;1.05;0.90;;;19.40;80.20;;;;;;5019379;28;20081;-63
2021/06/04 12:01:46;;;;;;;1.77;1.67;;;19.60;80.90;;;;;;5019585;28;20755;-63
2021/06/04 12:04:20;;;;;;;1.33;0.90;;;19.60;79.10;;;;;;5019162;28;20071;-63
2021/06/04 12:07:33;;;;;;;7.47;1.10;;;19.70;78.00;;;;;;5019287;28;20080;-63
2021/06/04 12:10:00;;;;;;;0.85;0.75;;;19.70;79.00;;;;;;5019253;28;20060;-63
2021/06/04 12:12:29;;;;;;;1.42;1.33;;;19.70;78.30;;;;;;5018842;28;20049;-63
2021/06/04 12:14:56;;;;;;;1.33;1.17;;;19.60;78.30;;;;;;5021437;28;20069;-63
2021/06/04 12:17:27;;;;;;;2.30;1.25;;;19.90;79.00;;;;;;5017287;28;20045;-63
2021/06/04 12:20:29;;;;;;;1.50;1.05;;;20.20;77.20;;;;;;5018654;28;20042;-63
2021/06/04 12:23:09;;;;;;;1.45;1.23;;;20.50;74.50;;;;;;4995177;28;20073;-63
2021/06/04 12:25:36;;;;;;;0.60;0.60;;;20.60;74.70;;;;;;5016353;28;20134;-63
2021/06/04 12:28:19;;;;;;;1.42;0.93;;;20.80;74.90;;;;;;5018628;28;20686;-64
2021/06/04 12:30:48;;;;;;;2.85;1.40;;;20.80;75.20;;;;;;5020201;28;20049;-63
2021/06/04 12:33:42;;;;;;;1.02;0.93;;;20.60;73.10;;;;;;5019631;28;20084;-63
2021/06/04 12:36:34;;;;;;;1.17;1.00;;;20.50;74.60;;;;;;5018372;28;20061;-64
2021/06/04 12:39:20;;;;;;;2.22;1.00;;;20.60;74.90;;;;;;5018406;28;20588;-63
2021/06/04 12:42:03;;;;;;;0.75;0.65;;;20.80;72.20;;;;;;5017395;28;20388;-63
2021/06/04 12:44:30;;;;;;;5.53;1.17;;;20.50;70.50;;;;;;5017428;28;20061;-63
2021/06/04 12:46:57;;;;;;;1.13;0.93;;;20.80;70.70;;;;;;5018978;28;20168;-63
2021/06/04 12:49:24;;;;;;;2.00;1.20;;;20.80;72.30;;;;;;5018147;28;20057;-64
2021/06/04 12:51:52;;;;;;;3.72;1.00;;;21.00;72.80;;;;;;5017824;28;20503;-63
2021/06/04 12:54:29;;;;;;;1.13;0.70;;;21.10;71.70;;;;;;5018445;28;20054;-63
2021/06/04 12:56:58;;;;;;;0.95;0.75;;;21.20;71.60;;;;;;5015526;28;20080;-63
2021/06/04 12:59:28;;;;;;;0.93;0.70;;;21.20;71.70;;;;;;5016662;28;20089;-65
2021/06/04 13:02:03;;;;;;;1.57;1.10;;;21.20;71.70;;;;;;5018451;28;20124;-63
2021/06/04 13:04:37;;;;;;;1.35;1.10;;;21.40;73.10;;;;;;5050301;28;20336;-64
2021/06/04 13:07:15;;;;;;;1.25;1.10;;;21.60;71.60;;;;;;5013727;28;20072;-64
2021/06/04 13:09:54;;;;;;;3.22;1.20;;;21.60;72.20;;;;;;5010524;28;20116;-64
2021/06/04 13:12:27;;;;;;;2.20;1.20;;;21.50;70.70;;;;;;5015527;28;20060;-64
2021/06/04 13:14:55;;;;;;;2.25;2.03;;;21.50;68.90;;;;;;5013181;28;20151;-64
2021/06/04 13:17:22;;;;;;;1.45;1.35;;;21.10;71.00;;;;;;5015006;28;20661;-64
2021/06/04 13:20:12;;;;;;;1.27;0.93;;;20.90;70.60;;;;;;5011044;28;20064;-63
2021/06/04 13:22:44;;;;;;;3.58;1.15;;;20.90;71.50;;;;;;5015006;28;20081;-63
2021/06/04 13:25:25;;;;;;;1.33;0.60;;;20.70;70.70;;;;;;5012662;28;20084;-63